createdAt,value
2023-04-11T00:01:33.019Z,95494.64
2023-04-11T00:04:01.411Z,95492.85
2023-04-11T00:06:29.690Z,95491.92
2023-04-11T00:08:58.240Z,95485.27
2023-04-11T00:11:26.649Z,95484.37
2023-04-11T00:13:58.878Z,95478.44
2023-04-11T00:16:27.342Z,95474.11
2023-04-11T00:18:57.470Z,95473.39
2023-04-11T00:21:26.213Z,95476.33
2023-04-11T00:23:54.811Z,95475.66
2023-04-11T00:26:22.868Z,95477.55
2023-04-11T00:28:51.177Z,95476.89
2023-04-11T00:31:19.567Z,95472.91
2023-04-11T00:33:47.662Z,95473.33
2023-04-11T00:36:16.584Z,95474.02
2023-04-11T00:38:46.717Z,95475.27
2023-04-11T00:41:14.903Z,95476.56
2023-04-11T00:43:43.098Z,95475.95
2023-04-11T00:46:11.434Z,95474.61
2023-04-11T00:48:40.238Z,95477.48
2023-04-11T00:51:08.518Z,95476.59
2023-04-11T00:53:38.291Z,95477.55
2023-04-11T00:56:07.139Z,95469.54
2023-04-11T00:58:38.133Z,95469.73
2023-04-11T01:01:09.302Z,95468.06
2023-04-11T01:03:41.515Z,95468.96
2023-04-11T01:06:13.137Z,95470.40
2023-04-11T01:08:43.675Z,95467.48
2023-04-11T01:11:12.881Z,95469.30
2023-04-11T01:13:42.362Z,95470.80
2023-04-11T01:16:11.461Z,95467.64
2023-04-11T01:18:39.758Z,95471.66
2023-04-11T01:21:10.136Z,95470.44
2023-04-11T01:23:38.463Z,95467.13
2023-04-11T01:26:07.683Z,95469.23
2023-04-11T01:28:36.053Z,95469.89
2023-04-11T01:31:05.042Z,95468.98
2023-04-11T01:33:33.344Z,95466.98
2023-04-11T01:36:01.660Z,95463.19
2023-04-11T01:38:29.977Z,95460.21
2023-04-11T01:40:59.230Z,95458.38
2023-04-11T01:43:27.445Z,95458.54
2023-04-11T01:45:55.918Z,95457.15
2023-04-11T01:48:24.237Z,95451.54
2023-04-11T01:50:53.355Z,95452.61
2023-04-11T01:53:21.732Z,95448.69
2023-04-11T01:55:49.951Z,95451.63
2023-04-11T01:58:18.091Z,95450.03
2023-04-11T02:00:46.523Z,95452.47
2023-04-11T02:03:14.963Z,95450.08
2023-04-11T02:05:43.801Z,95447.56
2023-04-11T02:08:12.594Z,95443.51
2023-04-11T02:10:40.860Z,95445.44
2023-04-11T02:13:09.763Z,95443.23
2023-04-11T02:15:38.019Z,95442.48
2023-04-11T02:18:07.236Z,95440.05
2023-04-11T02:20:40.710Z,95438.79
2023-04-11T02:23:09.012Z,95438.42
2023-04-11T02:25:39.059Z,95438.79
2023-04-11T02:28:08.205Z,95439.57
2023-04-11T02:30:36.773Z,95438.36
2023-04-11T02:33:05.100Z,95436.80
2023-04-11T02:35:34.736Z,95432.35
2023-04-11T02:38:02.887Z,95430.76
2023-04-11T02:40:31.671Z,95432.05
2023-04-11T02:43:01.328Z,95430.28
2023-04-11T02:45:31.100Z,95428.85
2023-04-11T02:47:59.284Z,95428.93
2023-04-11T02:50:27.887Z,95424.30
2023-04-11T02:52:56.237Z,95422.70
2023-04-11T02:55:27.251Z,95424.36
2023-04-11T02:57:55.663Z,95425.58
2023-04-11T03:00:25.186Z,95424.91
2023-04-11T03:03:02.873Z,95426.05
2023-04-11T03:05:31.769Z,95426.59
2023-04-11T03:07:59.832Z,95424.02
2023-04-11T03:10:29.315Z,95422.41
2023-04-11T03:12:57.722Z,95424.45
2023-04-11T03:15:27.125Z,95423.63
2023-04-11T03:17:56.195Z,95419.33
2023-04-11T03:20:25.011Z,95415.33
2023-04-11T03:22:54.558Z,95415.68
2023-04-11T03:25:22.818Z,95418.37
2023-04-11T03:27:51.898Z,95418.59
2023-04-11T03:30:20.306Z,95420.16
2023-04-11T03:32:49.403Z,95418.55
2023-04-11T03:35:20.728Z,95419.85
2023-04-11T03:37:50.760Z,95418.94
2023-04-11T03:40:19.237Z,95414.75
2023-04-11T03:42:52.077Z,95413.05
2023-04-11T03:45:23.074Z,95413.58
2023-04-11T03:47:52.287Z,95411.84
2023-04-11T03:50:22.478Z,95413.04
2023-04-11T03:52:51.887Z,95408.46
2023-04-11T03:55:21.255Z,95408.13
2023-04-11T03:57:49.767Z,95404.73
2023-04-11T04:00:20.771Z,95405.39
2023-04-11T04:02:57.187Z,95397.95
2023-04-11T04:05:26.210Z,95394.66
2023-04-11T04:07:55.918Z,95392.67
2023-04-11T04:10:32.057Z,95393.15
2023-04-11T04:13:00.530Z,95392.42
2023-04-11T04:15:36.793Z,95392.00
2023-04-11T04:18:05.300Z,95390.27
2023-04-11T04:21:00.011Z,95390.48
2023-04-11T04:23:30.205Z,95386.02
2023-04-11T04:26:13.348Z,95380.23
2023-04-11T04:28:47.550Z,95375.64
2023-04-11T04:31:22.622Z,95378.60
2023-04-11T04:33:52.070Z,95377.91
2023-04-11T04:36:25.280Z,95379.42
2023-04-11T04:38:54.689Z,95379.89
2023-04-11T04:41:23.910Z,95374.29
2023-04-11T04:43:58.675Z,95371.78
2023-04-11T04:46:44.829Z,95372.81
2023-04-11T04:49:13.311Z,95374.93
2023-04-11T04:51:41.784Z,95378.54
2023-04-11T04:54:10.286Z,95376.02
2023-04-11T04:56:38.746Z,95377.56
2023-04-11T04:59:08.291Z,95376.51
2023-04-11T05:01:40.280Z,95377.58
2023-04-11T05:04:09.471Z,95374.45
2023-04-11T05:06:46.145Z,95374.10
2023-04-11T05:09:15.011Z,95375.30
2023-04-11T05:11:43.767Z,95371.32
2023-04-11T05:14:11.928Z,95369.23
2023-04-11T05:16:42.569Z,95371.98
2023-04-11T05:19:11.360Z,95368.11
2023-04-11T05:21:42.759Z,95366.21
2023-04-11T05:24:12.140Z,95362.56
2023-04-11T05:26:40.819Z,95357.94
2023-04-11T05:29:11.060Z,95354.68
2023-04-11T05:31:39.274Z,95345.59
2023-04-11T05:34:07.909Z,95342.75
2023-04-11T05:36:37.106Z,95349.20
2023-04-11T05:39:06.238Z,95345.55
2023-04-11T05:41:34.405Z,95339.77
2023-04-11T05:44:05.528Z,95337.78
2023-04-11T05:46:36.976Z,95331.36
2023-04-11T05:49:05.977Z,95330.45
2023-04-11T05:51:34.462Z,95322.54
2023-04-11T05:54:02.889Z,95323.50
2023-04-11T05:56:31.327Z,95320.21
2023-04-11T05:58:59.577Z,95320.42
2023-04-11T06:01:28.801Z,95322.88
2023-04-11T06:03:57.833Z,95320.42
2023-04-11T06:06:27.765Z,95319.33
2023-04-11T06:08:56.102Z,95321.02
2023-04-11T06:11:27.546Z,95324.02
2023-04-11T06:13:55.994Z,95324.23
2023-04-11T06:16:24.706Z,95322.88
2023-04-11T06:18:53.037Z,95315.52
2023-04-11T06:21:21.361Z,95313.82
2023-04-11T06:23:49.610Z,95309.58
2023-04-11T06:26:18.035Z,95309.34
2023-04-11T06:28:46.312Z,95306.20
2023-04-11T06:31:14.724Z,95306.06
2023-04-11T06:33:43.033Z,95304.79
2023-04-11T06:36:11.873Z,95300.83
2023-04-11T06:38:40.860Z,95300.19
2023-04-11T06:41:08.985Z,95301.89
2023-04-11T06:43:37.223Z,95298.27
2023-04-11T06:46:06.020Z,95297.73
2023-04-11T06:48:34.695Z,95301.44
2023-04-11T06:51:03.114Z,95301.61
2023-04-11T06:53:31.392Z,95301.25
2023-04-11T06:56:00.966Z,95300.91
2023-04-11T06:58:29.240Z,95304.66
2023-04-11T07:00:57.722Z,95304.75
2023-04-11T07:03:26.561Z,95305.79
2023-04-11T07:05:55.098Z,95304.75
2023-04-11T07:08:23.376Z,95304.14
2023-04-11T07:10:51.681Z,95299.20
2023-04-11T07:13:21.426Z,95297.92
2023-04-11T07:15:49.653Z,95303.77
2023-04-11T07:18:17.930Z,95309.68
2023-04-11T07:20:46.741Z,95309.91
2023-04-11T07:23:15.300Z,95308.82
2023-04-11T07:25:45.230Z,95303.45
2023-04-11T07:28:13.393Z,95302.89
2023-04-11T07:30:42.721Z,95299.77
2023-04-11T07:33:11.175Z,95302.90
2023-04-11T07:35:39.534Z,95304.08
2023-04-11T07:38:10.194Z,95302.23
2023-04-11T07:40:38.578Z,95298.35
2023-04-11T07:43:06.900Z,95295.68
2023-04-11T07:45:36.582Z,95290.62
2023-04-11T07:48:05.468Z,95289.89
2023-04-11T07:50:33.729Z,95280.49
2023-04-11T07:53:02.613Z,95277.02
2023-04-11T07:55:30.969Z,95277.16
2023-04-11T07:57:59.444Z,95281.60
2023-04-11T08:00:29.031Z,95279.33
2023-04-11T08:02:59.279Z,95269.67
2023-04-11T08:05:28.085Z,95266.48
2023-04-11T08:07:57.180Z,95262.13
2023-04-11T08:10:25.782Z,95259.93
2023-04-11T08:12:55.624Z,95249.28
2023-04-11T08:15:23.732Z,95254.77
2023-04-11T08:17:56.386Z,95249.82
2023-04-11T08:20:25.190Z,95245.23
2023-04-11T08:22:53.637Z,95248.71
2023-04-11T08:25:25.300Z,95241.86
2023-04-11T08:27:53.573Z,95241.34
2023-04-11T08:30:21.809Z,95233.85
2023-04-11T08:32:50.257Z,95228.23
2023-04-11T08:35:18.717Z,95224.23
2023-04-11T08:37:47.109Z,95217.84
2023-04-11T08:40:16.705Z,95215.84
2023-04-11T08:42:45.956Z,95217.20
2023-04-11T08:45:14.287Z,95212.70
2023-04-11T08:47:45.282Z,95208.23
2023-04-11T08:50:14.153Z,95207.98
2023-04-11T08:52:45.179Z,95206.52
2023-04-11T08:55:13.747Z,95207.54
2023-04-11T08:57:42.692Z,95200.95
2023-04-11T09:00:14.600Z,95194.09
2023-04-11T09:03:05.798Z,95191.99
2023-04-11T09:05:35.650Z,95185.48
2023-04-11T09:08:09.214Z,95184.39
2023-04-11T09:10:39.881Z,95181.42
2023-04-11T09:13:26.006Z,95179.22
2023-04-11T09:16:12.371Z,95182.02
2023-04-11T09:18:46.375Z,95174.25
2023-04-11T09:21:17.126Z,95177.27
2023-04-11T09:23:45.606Z,95171.39
2023-04-11T09:26:29.755Z,95166.86
2023-04-11T09:28:58.416Z,95161.34
2023-04-11T09:31:45.140Z,95157.37
2023-04-11T09:34:13.841Z,95150.96
2023-04-11T09:36:42.645Z,95147.54
2023-04-11T09:39:18.284Z,95143.64
2023-04-11T09:41:46.773Z,95139.48
2023-04-11T09:44:15.057Z,95140.05
2023-04-11T09:46:59.824Z,95137.17
2023-04-11T09:49:29.016Z,95132.79
2023-04-11T09:51:59.755Z,95131.68
2023-04-11T09:54:29.390Z,95131.76
2023-04-11T09:56:59.479Z,95121.46
2023-04-11T09:59:29.382Z,95125.51
2023-04-11T10:01:58.994Z,95119.31
2023-04-11T10:04:28.971Z,95112.33
2023-04-11T10:07:09.168Z,95106.58
2023-04-11T10:09:41.103Z,95106.18
2023-04-11T10:12:09.446Z,95102.95
2023-04-11T10:14:37.795Z,95097.92
2023-04-11T10:17:23.327Z,95088.02
2023-04-11T10:19:58.804Z,95079.80
2023-04-11T10:22:43.546Z,95090.31
2023-04-11T10:25:19.699Z,95090.57
2023-04-11T10:28:04.129Z,95089.27
2023-04-11T10:30:42.265Z,95092.48
2023-04-11T10:33:20.506Z,95086.16
2023-04-11T10:36:05.708Z,95087.69
2023-04-11T10:38:52.116Z,95084.84
2023-04-11T10:41:23.323Z,95084.98
2023-04-11T10:43:52.579Z,95083.73
2023-04-11T10:46:21.910Z,95076.09
2023-04-11T10:49:00.677Z,95078.52
2023-04-11T10:51:31.686Z,95076.73
2023-04-11T10:54:01.527Z,95071.44
2023-04-11T10:56:52.777Z,95066.67
2023-04-11T10:59:34.600Z,95068.61
2023-04-11T11:02:03.686Z,95058.81
2023-04-11T11:04:33.571Z,95053.55
2023-04-11T11:07:07.206Z,95053.90
2023-04-11T11:09:35.668Z,95053.56
2023-04-11T11:12:08.945Z,95051.16
2023-04-11T11:14:38.390Z,95045.55
2023-04-11T11:17:07.842Z,95043.79
2023-04-11T11:19:36.593Z,95033.73
2023-04-11T11:22:06.372Z,95029.99
2023-04-11T11:24:34.700Z,95028.52
2023-04-11T11:27:03.079Z,95021.37
2023-04-11T11:29:38.269Z,95019.21
2023-04-11T11:32:07.369Z,95019.20
2023-04-11T11:34:36.269Z,95022.23
2023-04-11T11:37:04.977Z,95022.71
2023-04-11T11:39:34.459Z,95016.85
2023-04-11T11:42:03.615Z,95017.08
2023-04-11T11:44:32.226Z,95013.50
2023-04-11T11:47:17.395Z,95006.44
2023-04-11T11:49:51.261Z,95010.45
2023-04-11T11:52:37.070Z,95013.86
2023-04-11T11:55:11.292Z,95006.61
2023-04-11T11:57:46.826Z,94995.03
2023-04-11T12:00:23.772Z,94991.50
2023-04-11T12:02:53.359Z,94981.92
2023-04-11T12:05:24.983Z,94976.81
2023-04-11T12:07:55.259Z,94975.11
2023-04-11T12:10:23.839Z,94971.24
2023-04-11T12:12:53.857Z,94967.41
2023-04-11T12:15:24.546Z,94971.05
2023-04-11T12:17:54.285Z,94970.27
2023-04-11T12:20:24.334Z,94968.13
2023-04-11T12:22:54.633Z,94967.29
2023-04-11T12:25:26.137Z,94963.10
2023-04-11T12:27:54.370Z,94958.73
2023-04-11T12:30:22.965Z,94952.20
2023-04-11T12:32:51.273Z,94948.67
2023-04-11T12:35:19.633Z,94944.41
2023-04-11T12:37:47.907Z,94938.73
2023-04-11T12:40:16.501Z,94936.81
2023-04-11T12:42:56.433Z,94930.84
2023-04-11T12:45:26.403Z,94926.90
2023-04-11T12:47:54.858Z,94927.21
2023-04-11T12:50:24.306Z,94930.05
2023-04-11T12:52:53.241Z,94926.60
2023-04-11T12:55:21.942Z,94924.17
2023-04-11T12:57:50.420Z,94917.80
2023-04-11T13:00:19.054Z,94917.24
2023-04-11T13:02:48.817Z,94913.96
2023-04-11T13:05:17.971Z,94910.92
2023-04-11T13:07:46.821Z,94909.96
2023-04-11T13:10:16.379Z,94904.70
2023-04-11T13:12:46.013Z,94899.96
2023-04-11T13:15:16.900Z,94899.09
2023-04-11T13:17:45.795Z,94890.53
2023-04-11T13:20:14.643Z,94884.83
2023-04-11T13:22:43.472Z,94880.28
2023-04-11T13:25:12.662Z,94878.00
2023-04-11T13:27:42.440Z,94871.04
2023-04-11T13:30:11.633Z,94867.48
2023-04-11T13:32:40.169Z,94866.19
2023-04-11T13:35:09.243Z,94866.45
2023-04-11T13:37:37.716Z,94860.67
2023-04-11T13:40:11.428Z,94860.38
2023-04-11T13:42:39.806Z,94859.63
2023-04-11T13:45:08.868Z,94856.82
2023-04-11T13:47:38.796Z,94851.77
2023-04-11T13:50:09.272Z,94852.30
2023-04-11T13:52:37.919Z,94854.42
2023-04-11T13:55:07.070Z,94853.67
2023-04-11T13:57:35.313Z,94848.11
2023-04-11T14:00:11.924Z,94847.55
2023-04-11T14:02:41.718Z,94846.61
2023-04-11T14:05:11.671Z,94852.55
2023-04-11T14:07:40.861Z,94854.46
2023-04-11T14:10:09.523Z,94857.35
2023-04-11T14:12:38.001Z,94854.39
2023-04-11T14:15:08.014Z,94855.89
2023-04-11T14:17:36.559Z,94853.80
2023-04-11T14:20:07.086Z,94848.95
2023-04-11T14:22:36.135Z,94849.48
2023-04-11T14:25:05.821Z,94845.98
2023-04-11T14:27:34.042Z,94847.04
2023-04-11T14:30:02.411Z,94847.95
2023-04-11T14:32:30.798Z,94845.56
2023-04-11T14:35:01.973Z,94847.14
2023-04-11T14:37:34.690Z,94848.02
2023-04-11T14:40:08.102Z,94850.40
2023-04-11T14:42:37.388Z,94855.27
2023-04-11T14:45:06.631Z,94854.49
2023-04-11T14:47:35.316Z,94861.02
2023-04-11T14:50:03.691Z,94858.52
2023-04-11T14:52:31.937Z,94862.96
2023-04-11T14:55:00.190Z,94861.16
2023-04-11T14:57:49.276Z,94858.92
2023-04-11T15:00:22.642Z,94861.39
2023-04-11T15:02:54.531Z,94862.98
2023-04-11T15:05:23.832Z,94866.35
2023-04-11T15:07:53.424Z,94869.05
2023-04-11T15:10:24.548Z,94872.67
2023-04-11T15:12:53.496Z,94869.89
2023-04-11T15:15:21.889Z,94870.94
2023-04-11T15:18:25.167Z,94873.08
2023-04-11T15:20:54.259Z,94876.70
2023-04-11T15:23:23.396Z,94874.34
2023-04-11T15:26:05.422Z,94875.08
2023-04-11T15:28:38.907Z,94875.80
2023-04-11T15:31:09.236Z,94873.67
2023-04-11T15:33:38.503Z,94876.75
2023-04-11T15:36:07.439Z,94876.88
2023-04-11T15:38:36.825Z,94877.70
2023-04-11T15:41:05.989Z,94877.36
2023-04-11T15:43:34.147Z,94875.69
2023-04-11T15:46:06.869Z,94875.05
2023-04-11T15:48:35.226Z,94871.36
2023-04-11T15:51:10.970Z,94868.91
2023-04-11T15:53:39.218Z,94870.76
2023-04-11T15:56:08.426Z,94870.98
2023-04-11T15:58:36.609Z,94865.86
2023-04-11T16:01:05.539Z,94866.48
2023-04-11T16:03:33.891Z,94861.18
2023-04-11T16:06:02.857Z,94861.92
2023-04-11T16:08:31.283Z,94859.77
2023-04-11T16:10:59.463Z,94859.63
2023-04-11T16:13:27.712Z,94856.75
2023-04-11T16:15:56.382Z,94853.40
2023-04-11T16:18:24.670Z,94852.02
2023-04-11T16:20:52.794Z,94851.50
2023-04-11T16:23:21.362Z,94847.11
2023-04-11T16:25:49.663Z,94843.87
2023-04-11T16:28:17.816Z,94840.67
2023-04-11T16:30:46.125Z,94840.23
2023-04-11T16:33:14.375Z,94843.35
2023-04-11T16:35:42.711Z,94847.52
2023-04-11T16:38:11.038Z,94845.12
2023-04-11T16:40:39.295Z,94844.66
2023-04-11T16:43:07.490Z,94842.15
2023-04-11T16:45:36.026Z,94846.92
2023-04-11T16:48:06.066Z,94850.70
2023-04-11T16:50:34.323Z,94847.02
2023-04-11T16:53:02.765Z,94848.98
2023-04-11T16:55:31.056Z,94851.38
2023-04-11T16:57:59.208Z,94850.48
2023-04-11T17:00:29.586Z,94848.91
2023-04-11T17:02:59.044Z,94841.95
2023-04-11T17:05:27.532Z,94841.11
2023-04-11T17:07:56.143Z,94845.10
2023-04-11T17:10:24.285Z,94843.71
2023-04-11T17:12:54.304Z,94841.80
2023-04-11T17:15:22.582Z,94841.73
2023-04-11T17:17:51.116Z,94844.56
2023-04-11T17:20:21.122Z,94845.59
2023-04-11T17:22:49.975Z,94850.59
2023-04-11T17:25:18.457Z,94851.64
2023-04-11T17:27:46.704Z,94852.33
2023-04-11T17:30:14.925Z,94855.73
2023-04-11T17:32:43.210Z,94854.98
2023-04-11T17:35:11.465Z,94855.42
2023-04-11T17:37:40.054Z,94852.58
2023-04-11T17:40:12.796Z,94853.91
2023-04-11T17:42:41.637Z,94850.52
2023-04-11T17:45:18.115Z,94854.50
2023-04-11T17:47:47.844Z,94857.18
2023-04-11T17:50:18.577Z,94859.70
2023-04-11T17:52:47.756Z,94860.84
2023-04-11T17:55:19.128Z,94856.54
2023-04-11T17:57:49.244Z,94857.89
2023-04-11T18:00:23.247Z,94858.83
2023-04-11T18:02:54.688Z,94861.96
2023-04-11T18:05:25.848Z,94861.89
2023-04-11T18:07:58.954Z,94864.40
2023-04-11T18:10:29.372Z,94864.86
2023-04-11T18:12:58.780Z,94870.61
2023-04-11T18:15:28.167Z,94872.42
2023-04-11T18:17:56.718Z,94874.81
2023-04-11T18:20:25.651Z,94878.70
2023-04-11T18:22:56.539Z,94876.56
2023-04-11T18:25:25.097Z,94879.27
2023-04-11T18:27:53.645Z,94877.14
2023-04-11T18:30:22.094Z,94877.01
2023-04-11T18:32:54.006Z,94878.42
2023-04-11T18:35:24.302Z,94877.06
2023-04-11T18:37:54.333Z,94873.74
2023-04-11T18:40:22.974Z,94874.27
2023-04-11T18:42:52.986Z,94870.72
2023-04-11T18:45:22.726Z,94870.58
2023-04-11T18:47:51.690Z,94867.45
2023-04-11T18:50:20.463Z,94866.15
2023-04-11T18:52:53.864Z,94861.41
2023-04-11T18:55:25.394Z,94858.64
2023-04-11T18:57:57.224Z,94862.98
2023-04-11T19:00:28.969Z,94864.79
2023-04-11T19:02:57.940Z,94855.35
2023-04-11T19:05:26.895Z,94854.72
2023-04-11T19:07:56.308Z,94852.55
2023-04-11T19:10:24.886Z,94848.83
2023-04-11T19:12:53.378Z,94848.71
2023-04-11T19:15:21.574Z,94845.95
2023-04-11T19:17:50.014Z,94844.80
2023-04-11T19:20:20.490Z,94841.20
2023-04-11T19:22:48.743Z,94839.98
2023-04-11T19:25:17.637Z,94840.20
2023-04-11T19:27:47.354Z,94841.34
2023-04-11T19:30:15.731Z,94841.23
2023-04-11T19:32:46.279Z,94842.02
2023-04-11T19:35:15.449Z,94845.09
2023-04-11T19:37:43.730Z,94842.50
2023-04-11T19:40:15.377Z,94840.00
2023-04-11T19:42:45.107Z,94839.55
2023-04-11T19:45:13.480Z,94833.24
2023-04-11T19:47:42.252Z,94830.02
2023-04-11T19:50:15.366Z,94831.13
2023-04-11T19:52:44.265Z,94827.63
2023-04-11T19:55:12.944Z,94826.07
2023-04-11T19:57:43.798Z,94823.98
2023-04-11T20:00:14.369Z,94821.28
2023-04-11T20:02:46.105Z,94817.73
2023-04-11T20:05:17.271Z,94817.77
2023-04-11T20:07:46.761Z,94816.34
2023-04-11T20:10:16.400Z,94815.25
2023-04-11T20:12:45.241Z,94819.26
2023-04-11T20:15:13.619Z,94818.30
2023-04-11T20:17:43.221Z,94818.52
2023-04-11T20:20:13.539Z,94816.20
2023-04-11T20:22:44.914Z,94816.54
2023-04-11T20:25:13.830Z,94817.17
2023-04-11T20:27:43.367Z,94817.40
2023-04-11T20:30:12.836Z,94818.61
2023-04-11T20:32:42.104Z,94815.27
2023-04-11T20:35:14.260Z,94815.20
2023-04-11T20:37:45.532Z,94812.39
2023-04-11T20:40:17.181Z,94810.61
2023-04-11T20:42:49.685Z,94805.66
2023-04-11T20:45:21.796Z,94802.10
2023-04-11T20:47:50.495Z,94799.05
2023-04-11T20:50:19.965Z,94797.23
2023-04-11T20:52:52.666Z,94796.84
2023-04-11T20:55:21.161Z,94797.11
2023-04-11T20:57:49.801Z,94790.88
2023-04-11T21:00:19.965Z,94789.29
2023-04-11T21:02:53.273Z,94785.88
2023-04-11T21:05:25.227Z,94783.89
2023-04-11T21:07:56.307Z,94778.90
2023-04-11T21:10:25.001Z,94776.54
2023-04-11T21:12:54.486Z,94773.77
2023-04-11T21:15:23.178Z,94777.45
2023-04-11T21:17:52.529Z,94774.98
2023-04-11T21:20:22.475Z,94768.55
2023-04-11T21:22:55.334Z,94767.70
2023-04-11T21:25:24.296Z,94764.12
2023-04-11T21:27:52.688Z,94763.77
2023-04-11T21:30:21.138Z,94763.31
2023-04-11T21:32:49.429Z,94762.56
2023-04-11T21:35:17.907Z,94759.23
2023-04-11T21:37:48.934Z,94756.55
2023-04-11T21:40:17.663Z,94752.55
2023-04-11T21:42:46.012Z,94749.90
2023-04-11T21:45:14.301Z,94746.62
2023-04-11T21:47:42.732Z,94745.27
2023-04-11T21:50:11.574Z,94743.97
2023-04-11T21:52:39.859Z,94741.20
2023-04-11T21:55:09.131Z,94741.13
2023-04-11T21:57:37.738Z,94738.64
2023-04-11T22:00:08.426Z,94734.06
2023-04-11T22:02:43.051Z,94736.89
2023-04-11T22:05:12.863Z,94732.16
2023-04-11T22:07:47.446Z,94727.94
2023-04-11T22:10:23.994Z,94727.61
2023-04-11T22:12:54.690Z,94722.36
2023-04-11T22:15:24.536Z,94724.02
2023-04-11T22:17:54.684Z,94721.14
2023-04-11T22:20:23.159Z,94715.13
2023-04-11T22:22:51.352Z,94716.75
2023-04-11T22:25:22.650Z,94712.69
2023-04-11T22:27:54.958Z,94713.53
2023-04-11T22:30:24.682Z,94708.88
2023-04-11T22:32:54.570Z,94708.04
2023-04-11T22:35:26.281Z,94706.98
2023-04-11T22:37:59.333Z,94700.73
2023-04-11T22:40:27.624Z,94694.33
2023-04-11T22:42:55.994Z,94698.77
2023-04-11T22:45:24.623Z,94698.58
2023-04-11T22:48:00.073Z,94692.77
2023-04-11T22:50:28.849Z,94695.85
2023-04-11T22:52:57.228Z,94692.91
2023-04-11T22:55:25.575Z,94690.86
2023-04-11T22:57:53.868Z,94686.76
2023-04-11T23:00:24.042Z,94685.14
2023-04-11T23:02:52.728Z,94685.81
2023-04-11T23:05:21.592Z,94683.60
2023-04-11T23:07:50.238Z,94679.59
2023-04-11T23:10:19.333Z,94676.01
2023-04-11T23:12:48.249Z,94672.46
2023-04-11T23:15:17.641Z,94671.98
2023-04-11T23:17:46.283Z,94668.35
2023-04-11T23:20:15.651Z,94664.67
2023-04-11T23:22:44.764Z,94659.16
2023-04-11T23:25:15.438Z,94656.48
2023-04-11T23:27:44.756Z,94649.75
2023-04-11T23:30:17.501Z,94647.68
2023-04-11T23:32:46.018Z,94641.89
2023-04-11T23:35:17.121Z,94639.16
2023-04-11T23:37:46.033Z,94633.38
2023-04-11T23:40:14.988Z,94627.27
2023-04-11T23:42:43.253Z,94624.27
2023-04-11T23:45:12.881Z,94620.86
2023-04-11T23:47:41.389Z,94621.88
2023-04-11T23:50:10.633Z,94619.73
2023-04-11T23:52:39.953Z,94616.92
2023-04-11T23:55:08.822Z,94614.27
2023-04-11T23:57:37.202Z,94615.69
